createdAt,value
2023-02-27T00:01:53.470Z,2.80
2023-02-27T00:04:20.481Z,3.00
2023-02-27T00:06:47.533Z,3.00
2023-02-27T00:09:14.464Z,3.00
2023-02-27T00:11:42.627Z,3.10
2023-02-27T00:14:09.840Z,2.90
2023-02-27T00:16:36.801Z,2.90
2023-02-27T00:19:04.914Z,2.90
2023-02-27T00:21:32.271Z,2.90
2023-02-27T00:23:59.166Z,2.90
2023-02-27T00:26:26.510Z,2.70
2023-02-27T00:28:53.461Z,2.50
2023-02-27T00:31:20.402Z,2.60
2023-02-27T00:33:47.351Z,2.60
2023-02-27T00:36:14.338Z,2.60
2023-02-27T00:38:41.345Z,2.30
2023-02-27T00:41:08.239Z,2.40
2023-02-27T00:43:35.684Z,2.50
2023-02-27T00:46:02.639Z,2.10
2023-02-27T00:48:29.578Z,2.20
2023-02-27T00:50:56.542Z,2.10
2023-02-27T00:53:24.371Z,2.40
2023-02-27T00:55:51.441Z,1.90
2023-02-27T00:58:18.406Z,2.10
2023-02-27T01:00:45.320Z,2.20
2023-02-27T01:03:12.278Z,2.00
2023-02-27T01:05:39.461Z,2.10
2023-02-27T01:08:06.519Z,1.90
2023-02-27T01:10:33.400Z,1.80
2023-02-27T01:13:00.445Z,1.80
2023-02-27T01:15:27.491Z,1.70
2023-02-27T01:17:54.406Z,1.80
2023-02-27T01:20:21.748Z,1.70
2023-02-27T01:22:48.853Z,1.60
2023-02-27T01:25:15.993Z,1.70
2023-02-27T01:27:43.359Z,1.70
2023-02-27T01:30:11.736Z,1.80
2023-02-27T01:32:38.811Z,1.80
2023-02-27T01:35:06.756Z,1.70
2023-02-27T01:37:33.690Z,1.50
2023-02-27T01:40:00.623Z,1.60
2023-02-27T01:42:28.363Z,1.70
2023-02-27T01:45:12.191Z,1.60
2023-02-27T01:47:44.390Z,1.40
2023-02-27T01:50:12.067Z,1.80
2023-02-27T01:52:39.189Z,1.50
2023-02-27T01:55:12.674Z,1.40
2023-02-27T01:57:40.834Z,1.60
2023-02-27T02:00:09.381Z,1.00
2023-02-27T02:02:42.432Z,1.50
2023-02-27T02:05:09.614Z,1.70
2023-02-27T02:07:38.605Z,1.60
2023-02-27T02:10:05.943Z,1.60
2023-02-27T02:12:37.510Z,1.50
2023-02-27T02:15:05.172Z,1.80
2023-02-27T02:17:40.473Z,1.40
2023-02-27T02:20:32.121Z,1.50
2023-02-27T02:23:20.458Z,1.40
2023-02-27T02:26:05.949Z,1.20
2023-02-27T02:29:11.116Z,1.40
2023-02-27T02:31:50.036Z,1.50
2023-02-27T02:34:34.979Z,1.20
2023-02-27T02:37:37.003Z,1.30
2023-02-27T02:40:13.016Z,1.20
2023-02-27T02:43:02.736Z,1.30
2023-02-27T02:45:48.471Z,1.20
2023-02-27T02:48:40.225Z,1.30
2023-02-27T02:51:36.642Z,1.20
2023-02-27T02:54:25.999Z,0.90
2023-02-27T02:57:03.234Z,1.00
2023-02-27T02:59:35.561Z,0.90
2023-02-27T03:02:15.596Z,0.90
2023-02-27T03:04:45.844Z,0.90
2023-02-27T03:07:15.015Z,0.90
2023-02-27T03:10:07.070Z,0.80
2023-02-27T03:12:34.164Z,0.90
2023-02-27T03:15:22.080Z,1.00
2023-02-27T03:17:52.860Z,0.80
2023-02-27T03:20:25.455Z,0.80
2023-02-27T03:22:55.392Z,0.50
2023-02-27T03:25:22.968Z,1.00
2023-02-27T03:27:57.751Z,0.90
2023-02-27T03:31:11.648Z,0.60
2023-02-27T03:33:47.617Z,0.60
2023-02-27T03:37:03.772Z,0.60
2023-02-27T03:39:43.000Z,0.80
2023-02-27T03:42:22.993Z,0.70
2023-02-27T03:45:29.149Z,0.70
2023-02-27T03:47:56.721Z,0.60
2023-02-27T03:50:23.934Z,0.00
2023-02-27T03:52:51.176Z,0.50
2023-02-27T03:55:25.638Z,0.70
2023-02-27T03:57:53.470Z,0.60
2023-02-27T04:00:22.248Z,0.40
2023-02-27T04:02:53.053Z,0.40
2023-02-27T04:05:23.838Z,0.30
2023-02-27T04:08:19.525Z,0.20
2023-02-27T04:10:55.702Z,0.20
2023-02-27T04:14:00.847Z,0.10
2023-02-27T04:16:48.386Z,0.30
2023-02-27T04:19:36.500Z,0.30
2023-02-27T04:22:09.913Z,0.20
2023-02-27T04:24:55.445Z,0.20
2023-02-27T04:27:41.454Z,0.20
2023-02-27T04:30:41.908Z,0.10
2023-02-27T04:33:36.563Z,0.10
2023-02-27T04:36:07.447Z,0.10
2023-02-27T04:38:36.931Z,0.30
2023-02-27T04:41:25.523Z,0.00
2023-02-27T04:43:52.605Z,0.30
2023-02-27T04:46:20.599Z,0.30
2023-02-27T04:48:58.483Z,0.20
2023-02-27T04:51:27.865Z,0.30
2023-02-27T04:54:00.564Z,0.10
2023-02-27T04:56:33.644Z,0.10
2023-02-27T04:59:03.841Z,0.10
2023-02-27T05:01:54.158Z,0.10
2023-02-27T05:04:21.773Z,0.10
2023-02-27T05:06:48.773Z,0.00
2023-02-27T05:09:38.758Z,0.00
2023-02-27T05:12:19.704Z,0.10
2023-02-27T05:14:49.585Z,0.10
2023-02-27T05:17:20.170Z,0.10
2023-02-27T05:19:47.254Z,0.10
2023-02-27T05:22:23.771Z,0.10
2023-02-27T05:25:07.059Z,-0.10
2023-02-27T05:28:02.032Z,0.00
2023-02-27T05:30:34.855Z,-0.20
2023-02-27T05:33:18.126Z,0.00
2023-02-27T05:35:54.943Z,-0.30
2023-02-27T05:38:26.616Z,-0.20
2023-02-27T05:41:01.902Z,-0.10
2023-02-27T05:43:31.076Z,-0.10
2023-02-27T05:46:05.530Z,-0.20
2023-02-27T05:48:54.412Z,0.00
2023-02-27T05:51:21.385Z,0.00
2023-02-27T05:54:03.554Z,-0.30
2023-02-27T05:56:30.389Z,-0.30
2023-02-27T05:59:12.737Z,-0.10
2023-02-27T06:01:39.654Z,-0.20
2023-02-27T06:04:06.549Z,-0.30
2023-02-27T06:06:33.479Z,-0.50
2023-02-27T06:09:00.622Z,-0.30
2023-02-27T06:11:27.705Z,-0.40
2023-02-27T06:13:54.631Z,-0.40
2023-02-27T06:16:21.621Z,-0.60
2023-02-27T06:18:48.671Z,-0.60
2023-02-27T06:21:15.643Z,-0.60
2023-02-27T06:23:42.561Z,-0.60
2023-02-27T06:26:13.710Z,-0.30
2023-02-27T06:28:42.342Z,-0.50
2023-02-27T06:31:09.361Z,-0.90
2023-02-27T06:33:36.446Z,-0.80
2023-02-27T06:36:03.563Z,-0.40
2023-02-27T06:38:31.534Z,-0.50
2023-02-27T06:40:58.987Z,-0.50
2023-02-27T06:43:26.112Z,-0.80
2023-02-27T06:45:56.335Z,-1.10
2023-02-27T06:48:23.394Z,-0.50
2023-02-27T06:50:54.377Z,-0.50
2023-02-27T06:53:21.342Z,-0.40
2023-02-27T06:55:48.261Z,-0.50
2023-02-27T06:58:15.877Z,-0.30
2023-02-27T07:00:43.371Z,-0.40
2023-02-27T07:03:10.452Z,-0.30
2023-02-27T07:05:37.355Z,-0.90
2023-02-27T07:08:04.598Z,-0.70
2023-02-27T07:10:31.545Z,-0.30
2023-02-27T07:12:58.472Z,-0.30
2023-02-27T07:15:25.456Z,-0.50
2023-02-27T07:17:54.338Z,-0.50
2023-02-27T07:20:21.292Z,-0.30
2023-02-27T07:22:48.453Z,-0.30
2023-02-27T07:25:15.406Z,-0.10
2023-02-27T07:27:44.440Z,-0.30
2023-02-27T07:30:12.206Z,-0.30
2023-02-27T07:32:39.128Z,-0.10
2023-02-27T07:35:06.982Z,-0.10
2023-02-27T07:37:33.954Z,0.10
2023-02-27T07:40:00.877Z,0.10
2023-02-27T07:42:27.852Z,0.30
2023-02-27T07:44:54.986Z,0.30
2023-02-27T07:47:22.080Z,0.40
2023-02-27T07:49:49.036Z,0.10
2023-02-27T07:52:15.951Z,0.50
2023-02-27T07:54:42.953Z,0.60
2023-02-27T07:57:09.902Z,1.10
2023-02-27T07:59:36.781Z,1.40
2023-02-27T08:02:03.836Z,1.50
2023-02-27T08:04:30.812Z,1.80
2023-02-27T08:06:58.018Z,1.70
2023-02-27T08:09:25.006Z,2.10
2023-02-27T08:11:51.908Z,2.40
2023-02-27T08:14:18.903Z,2.60
2023-02-27T08:16:45.863Z,2.90
2023-02-27T08:19:14.129Z,3.00
2023-02-27T08:21:41.464Z,3.20
2023-02-27T08:24:08.474Z,3.70
2023-02-27T08:26:35.447Z,3.70
2023-02-27T08:29:02.408Z,4.40
2023-02-27T08:31:29.402Z,4.70
2023-02-27T08:34:07.806Z,4.90
2023-02-27T08:36:36.566Z,5.30
2023-02-27T08:39:03.624Z,5.60
2023-02-27T08:41:30.574Z,5.60
2023-02-27T08:43:57.451Z,6.40
2023-02-27T08:46:24.759Z,6.80
2023-02-27T08:48:51.879Z,7.40
2023-02-27T08:51:18.887Z,7.10
2023-02-27T08:53:45.795Z,7.10
2023-02-27T08:56:12.758Z,7.20
2023-02-27T08:58:39.708Z,7.30
2023-02-27T09:01:06.646Z,6.90
2023-02-27T09:03:33.647Z,6.80
2023-02-27T09:06:00.680Z,6.60
2023-02-27T09:08:27.652Z,6.40
2023-02-27T09:10:58.060Z,6.10
2023-02-27T09:13:25.109Z,5.90
2023-02-27T09:15:52.202Z,6.00
2023-02-27T09:18:19.216Z,6.30
2023-02-27T09:20:46.230Z,6.30
2023-02-27T09:23:13.117Z,6.40
2023-02-27T09:25:40.120Z,6.30
2023-02-27T09:28:07.030Z,6.40
2023-02-27T09:30:34.064Z,6.30
2023-02-27T09:33:01.313Z,6.40
2023-02-27T09:35:28.239Z,6.40
2023-02-27T09:37:57.533Z,6.50
2023-02-27T09:40:27.049Z,6.30
2023-02-27T09:42:57.162Z,6.30
2023-02-27T09:45:26.194Z,6.50
2023-02-27T09:48:17.404Z,6.70
2023-02-27T09:50:48.906Z,6.70
2023-02-27T09:53:31.298Z,6.80
2023-02-27T09:56:08.199Z,6.80
2023-02-27T09:58:41.072Z,7.20
2023-02-27T10:01:10.578Z,7.10
2023-02-27T10:03:45.217Z,7.30
2023-02-27T10:06:23.581Z,7.40
2023-02-27T10:09:17.968Z,7.60
2023-02-27T10:11:51.238Z,7.60
2023-02-27T10:14:42.646Z,7.40
2023-02-27T10:17:45.101Z,7.30
2023-02-27T10:20:26.703Z,7.30
2023-02-27T10:22:53.771Z,7.60
2023-02-27T10:25:31.369Z,7.50
2023-02-27T10:28:12.428Z,7.70
2023-02-27T10:30:39.514Z,7.90
2023-02-27T10:33:08.558Z,7.90
2023-02-27T10:35:39.537Z,7.70
2023-02-27T10:38:33.733Z,7.80
2023-02-27T10:41:01.204Z,7.90
2023-02-27T10:43:31.547Z,8.00
2023-02-27T10:46:02.716Z,8.10
2023-02-27T10:48:32.459Z,8.30
2023-02-27T10:51:29.314Z,8.40
2023-02-27T10:54:18.783Z,8.60
2023-02-27T10:56:48.966Z,8.50
2023-02-27T10:59:33.000Z,8.40
2023-02-27T11:02:01.687Z,8.60
2023-02-27T11:04:39.661Z,9.00
2023-02-27T11:07:10.997Z,8.80
2023-02-27T11:09:41.305Z,8.50
2023-02-27T11:12:33.466Z,8.50
2023-02-27T11:15:04.186Z,8.70
2023-02-27T11:17:45.548Z,8.30
2023-02-27T11:20:34.066Z,8.60
2023-02-27T11:23:22.617Z,8.70
2023-02-27T11:26:02.753Z,8.80
2023-02-27T11:28:34.346Z,8.90
2023-02-27T11:31:08.186Z,9.00
2023-02-27T11:33:38.924Z,9.00
2023-02-27T11:36:06.556Z,9.10
2023-02-27T11:38:34.924Z,9.30
2023-02-27T11:41:03.795Z,9.10
2023-02-27T11:43:50.875Z,9.40
2023-02-27T11:46:46.689Z,9.70
2023-02-27T11:49:33.314Z,10.00
2023-02-27T11:52:15.238Z,10.00
2023-02-27T11:54:54.380Z,9.50
2023-02-27T11:57:27.798Z,9.70
2023-02-27T12:00:25.279Z,9.50
2023-02-27T12:03:16.117Z,9.00
2023-02-27T12:05:47.212Z,9.20
2023-02-27T12:08:38.272Z,8.90
2023-02-27T12:11:14.797Z,8.90
2023-02-27T12:13:45.676Z,8.90
2023-02-27T12:16:24.904Z,9.10
2023-02-27T12:25:26.372Z,9.00
2023-02-27T12:28:33.355Z,9.20
2023-02-27T12:31:24.786Z,8.90
2023-02-27T12:34:05.158Z,8.90
2023-02-27T12:36:32.134Z,8.80
2023-02-27T12:38:59.131Z,8.70
2023-02-27T12:41:38.422Z,8.80
2023-02-27T12:44:25.049Z,8.80
2023-02-27T12:47:02.373Z,8.80
2023-02-27T12:49:40.635Z,9.20
2023-02-27T12:52:20.777Z,9.40
2023-02-27T12:54:56.796Z,9.90
2023-02-27T12:57:52.741Z,8.90
2023-02-27T13:00:38.234Z,9.20
2023-02-27T13:06:46.438Z,8.90
2023-02-27T13:09:47.852Z,9.00
2023-02-27T13:12:23.593Z,9.00
2023-02-27T13:14:57.263Z,9.20
2023-02-27T13:17:33.878Z,9.10
2023-02-27T13:20:07.580Z,8.90
2023-02-27T13:22:48.689Z,9.20
2023-02-27T13:25:16.073Z,9.40
2023-02-27T13:27:45.276Z,9.40
2023-02-27T13:30:34.659Z,9.40
2023-02-27T13:33:30.607Z,9.50
2023-02-27T13:36:24.267Z,9.30
2023-02-27T13:38:55.299Z,9.40
2023-02-27T13:41:25.619Z,9.50
2023-02-27T13:43:56.380Z,9.10
2023-02-27T13:46:29.803Z,9.20
2023-02-27T13:49:06.007Z,9.00
2023-02-27T13:51:36.539Z,9.10
2023-02-27T13:54:18.418Z,9.00
2023-02-27T13:57:01.050Z,9.10
2023-02-27T13:59:41.047Z,9.40
2023-02-27T14:02:11.407Z,9.30
2023-02-27T14:04:49.153Z,9.20
2023-02-27T14:07:21.452Z,9.30
2023-02-27T14:09:51.094Z,9.10
2023-02-27T14:12:44.533Z,9.00
2023-02-27T14:15:27.353Z,9.00
2023-02-27T14:18:13.894Z,9.40
2023-02-27T14:20:49.490Z,9.20
2023-02-27T14:23:24.180Z,9.30
2023-02-27T14:25:58.359Z,9.20
2023-02-27T14:28:47.475Z,9.30
2023-02-27T14:31:34.460Z,9.20
2023-02-27T14:34:11.157Z,9.30
2023-02-27T14:36:52.217Z,9.30
2023-02-27T14:39:36.669Z,9.10
2023-02-27T14:42:41.654Z,9.00
2023-02-27T14:45:25.380Z,9.40
2023-02-27T14:47:52.876Z,9.10
2023-02-27T14:50:24.101Z,9.20
2023-02-27T14:52:51.089Z,9.00
2023-02-27T14:55:27.926Z,9.00
2023-02-27T14:58:13.854Z,8.90
2023-02-27T15:01:09.378Z,9.00
2023-02-27T15:03:40.093Z,8.90
2023-02-27T15:06:46.012Z,8.70
2023-02-27T15:09:37.908Z,9.00
2023-02-27T15:12:05.230Z,8.70
2023-02-27T15:14:37.447Z,8.70
2023-02-27T15:17:05.164Z,8.80
2023-02-27T15:19:32.302Z,8.90
2023-02-27T15:22:02.308Z,8.70
2023-02-27T15:24:40.680Z,9.00
2023-02-27T15:27:21.366Z,8.80
2023-02-27T15:29:52.394Z,8.70
2023-02-27T15:32:34.182Z,8.80
2023-02-27T15:35:12.119Z,8.60
2023-02-27T15:37:39.697Z,8.90
2023-02-27T15:40:09.084Z,8.90
2023-02-27T15:42:37.789Z,8.90
2023-02-27T15:45:06.782Z,8.80
2023-02-27T15:47:34.122Z,8.70
2023-02-27T15:50:23.221Z,8.60
2023-02-27T15:52:55.452Z,8.50
2023-02-27T15:55:31.567Z,8.40
2023-02-27T15:58:03.652Z,8.50
2023-02-27T16:00:33.872Z,8.50
2023-02-27T16:03:00.968Z,8.50
2023-02-27T16:05:35.258Z,8.50
2023-02-27T16:08:04.314Z,8.70
2023-02-27T16:10:41.436Z,8.40
2023-02-27T16:13:26.891Z,8.70
2023-02-27T16:16:26.712Z,8.50
2023-02-27T16:18:58.006Z,8.40
2023-02-27T16:21:26.792Z,8.40
2023-02-27T16:23:55.185Z,8.20
2023-02-27T16:26:37.479Z,8.60
2023-02-27T16:29:23.265Z,8.40
2023-02-27T16:31:59.361Z,8.50
2023-02-27T16:34:45.197Z,8.40
2023-02-27T16:37:40.609Z,8.40
2023-02-27T16:40:14.350Z,8.40
2023-02-27T16:42:41.679Z,8.10
2023-02-27T16:45:10.960Z,8.10
2023-02-27T16:47:38.445Z,8.00
2023-02-27T16:50:09.646Z,8.20
2023-02-27T16:52:36.843Z,8.00
2023-02-27T16:55:03.962Z,8.10
2023-02-27T16:57:31.201Z,8.20
2023-02-27T16:59:58.958Z,8.00
2023-02-27T17:02:26.045Z,8.00
2023-02-27T17:04:53.293Z,8.10
2023-02-27T17:07:20.710Z,7.80
2023-02-27T17:09:48.078Z,8.00
2023-02-27T17:12:15.558Z,7.70
2023-02-27T17:14:42.694Z,7.80
2023-02-27T17:17:11.572Z,7.90
2023-02-27T17:19:38.746Z,7.70
2023-02-27T17:22:05.991Z,7.60
2023-02-27T17:24:32.942Z,7.60
2023-02-27T17:27:00.105Z,7.50
2023-02-27T17:29:27.380Z,7.80
2023-02-27T17:31:54.386Z,7.60
2023-02-27T17:34:21.366Z,7.60
2023-02-27T17:36:48.764Z,7.40
2023-02-27T17:39:16.019Z,7.50
2023-02-27T17:41:43.463Z,7.30
2023-02-27T17:44:11.687Z,7.60
2023-02-27T17:46:38.797Z,7.60
2023-02-27T17:49:05.817Z,7.50
2023-02-27T17:51:32.910Z,7.40
2023-02-27T17:54:04.070Z,7.30
2023-02-27T17:56:31.268Z,7.40
2023-02-27T17:58:58.412Z,7.30
2023-02-27T18:01:26.359Z,7.20
2023-02-27T18:03:54.937Z,7.20
2023-02-27T18:06:22.701Z,7.40
2023-02-27T18:08:49.785Z,7.10
2023-02-27T18:11:18.618Z,7.20
2023-02-27T18:13:45.588Z,7.00
2023-02-27T18:16:12.775Z,7.20
2023-02-27T18:18:40.566Z,7.20
2023-02-27T18:21:12.972Z,7.20
2023-02-27T18:23:41.074Z,7.00
2023-02-27T18:26:12.449Z,6.90
2023-02-27T18:28:44.321Z,7.00
2023-02-27T18:31:25.452Z,7.00
2023-02-27T18:33:52.675Z,7.00
2023-02-27T18:36:19.822Z,6.60
2023-02-27T18:38:46.941Z,6.90
2023-02-27T18:41:14.430Z,6.70
2023-02-27T18:43:41.993Z,6.70
2023-02-27T18:46:09.910Z,6.70
2023-02-27T18:48:37.166Z,6.70
2023-02-27T18:51:06.139Z,6.70
2023-02-27T18:53:35.383Z,6.70
2023-02-27T18:56:03.469Z,6.90
2023-02-27T18:58:31.241Z,6.70
2023-02-27T19:01:00.525Z,6.70
2023-02-27T19:03:27.633Z,7.00
2023-02-27T19:05:54.819Z,6.80
2023-02-27T19:08:25.014Z,6.70
2023-02-27T19:10:52.090Z,6.60
2023-02-27T19:13:19.006Z,6.40
2023-02-27T19:15:46.170Z,6.50
2023-02-27T19:18:13.866Z,6.60
2023-02-27T19:20:40.825Z,6.70
2023-02-27T19:23:07.770Z,6.50
2023-02-27T19:25:35.492Z,6.50
2023-02-27T19:28:02.673Z,6.40
2023-02-27T19:30:29.659Z,6.50
2023-02-27T19:32:56.616Z,6.40
2023-02-27T19:35:23.820Z,6.30
2023-02-27T19:37:56.951Z,6.20
2023-02-27T19:40:24.364Z,6.10
2023-02-27T19:42:51.665Z,6.30
2023-02-27T19:45:18.673Z,6.20
2023-02-27T19:47:46.813Z,6.40
2023-02-27T19:50:13.993Z,6.40
2023-02-27T19:52:41.070Z,6.30
2023-02-27T19:55:08.533Z,6.20
2023-02-27T19:57:36.985Z,6.50
2023-02-27T20:00:08.146Z,6.60
2023-02-27T20:02:41.158Z,6.50
2023-02-27T20:05:08.521Z,6.30
2023-02-27T20:07:35.581Z,6.60
2023-02-27T20:10:02.611Z,6.30
2023-02-27T20:12:29.650Z,6.50
2023-02-27T20:14:56.649Z,6.40
2023-02-27T20:17:23.647Z,6.60
2023-02-27T20:19:50.648Z,6.50
2023-02-27T20:22:17.755Z,6.50
2023-02-27T20:24:44.872Z,6.40
2023-02-27T20:27:12.179Z,6.50
2023-02-27T20:29:40.577Z,6.50
2023-02-27T20:32:08.402Z,6.60
2023-02-27T20:34:35.429Z,6.70
2023-02-27T20:37:03.194Z,6.60
2023-02-27T20:39:30.216Z,6.60
2023-02-27T20:41:57.200Z,6.60
2023-02-27T20:44:24.177Z,6.50
2023-02-27T20:46:51.163Z,6.50
2023-02-27T20:49:18.365Z,6.50
2023-02-27T20:51:45.533Z,6.70
2023-02-27T20:54:14.217Z,6.50
2023-02-27T20:56:41.517Z,6.60
2023-02-27T20:59:10.619Z,6.40
2023-02-27T21:01:38.566Z,6.50
2023-02-27T21:04:05.940Z,6.70
2023-02-27T21:06:33.019Z,6.50
2023-02-27T21:09:02.693Z,6.40
2023-02-27T21:11:30.692Z,6.40
2023-02-27T21:13:59.065Z,6.70
2023-02-27T21:16:26.102Z,6.50
2023-02-27T21:18:53.535Z,6.30
2023-02-27T21:21:25.104Z,6.50
2023-02-27T21:23:52.510Z,6.40
2023-02-27T21:26:21.925Z,6.40
2023-02-27T21:29:00.130Z,6.70
2023-02-27T21:31:29.589Z,6.40
2023-02-27T21:33:58.307Z,6.40
2023-02-27T21:36:33.360Z,6.40
2023-02-27T21:39:03.654Z,6.40
2023-02-27T21:41:30.934Z,6.50
2023-02-27T21:44:02.567Z,6.60
2023-02-27T21:46:29.809Z,6.40
2023-02-27T21:48:59.325Z,6.40
2023-02-27T21:51:39.356Z,6.50
2023-02-27T21:54:07.445Z,6.40
2023-02-27T21:56:34.431Z,6.50
2023-02-27T21:59:04.560Z,6.20
2023-02-27T22:01:32.137Z,6.30
2023-02-27T22:03:59.462Z,6.30
2023-02-27T22:06:27.280Z,6.20
2023-02-27T22:08:55.151Z,6.40
2023-02-27T22:11:22.839Z,6.50
2023-02-27T22:13:49.818Z,6.30
2023-02-27T22:16:16.870Z,6.20
2023-02-27T22:18:43.837Z,6.20
2023-02-27T22:21:18.742Z,6.00
2023-02-27T22:23:46.080Z,6.00
2023-02-27T22:26:15.476Z,6.10
2023-02-27T22:28:42.554Z,5.80
2023-02-27T22:31:15.002Z,6.20
2023-02-27T22:33:42.957Z,6.00
2023-02-27T22:36:11.972Z,5.90
2023-02-27T22:38:39.041Z,5.80
2023-02-27T22:41:10.293Z,5.90
2023-02-27T22:43:39.728Z,5.60
2023-02-27T22:46:10.113Z,5.70
2023-02-27T22:48:37.229Z,5.50
2023-02-27T22:51:07.206Z,5.30
2023-02-27T22:53:38.377Z,5.70
2023-02-27T22:56:06.626Z,5.40
2023-02-27T22:58:40.163Z,5.30
2023-02-27T23:01:17.913Z,5.40
2023-02-27T23:03:45.932Z,5.30
2023-02-27T23:06:23.480Z,5.20
2023-02-27T23:08:50.484Z,5.20
2023-02-27T23:11:17.962Z,5.10
2023-02-27T23:13:44.989Z,5.10
2023-02-27T23:16:13.447Z,5.10
2023-02-27T23:18:51.468Z,5.00
2023-02-27T23:21:20.382Z,5.10
2023-02-27T23:23:47.847Z,5.10
2023-02-27T23:26:15.216Z,5.10
2023-02-27T23:28:42.853Z,4.80
2023-02-27T23:31:09.915Z,4.90
2023-02-27T23:33:37.128Z,4.80
2023-02-27T23:36:04.581Z,5.00
2023-02-27T23:38:31.637Z,4.90
2023-02-27T23:40:58.589Z,4.80
2023-02-27T23:43:25.554Z,4.90
2023-02-27T23:45:52.662Z,4.80
2023-02-27T23:48:21.959Z,4.80
2023-02-27T23:50:49.047Z,4.70
2023-02-27T23:53:16.130Z,4.90
2023-02-27T23:55:43.902Z,4.70
2023-02-27T23:58:11.288Z,4.90
